createdAt,value
2023-04-01T00:01:01.900Z,95301.63
2023-04-01T00:03:35.384Z,95305.44
2023-04-01T00:06:08.542Z,95312.34
2023-04-01T00:08:42.689Z,95308.09
2023-04-01T00:11:15.827Z,95305.44
2023-04-01T00:13:49.327Z,95312.34
2023-04-01T00:16:22.757Z,95313.47
2023-04-01T00:18:55.723Z,95309.22
2023-04-01T00:21:28.497Z,95311.56
2023-04-01T00:24:02.902Z,95307.34
2023-04-01T00:26:35.624Z,95315.78
2023-04-01T00:29:09.209Z,95314.34
2023-04-01T00:31:41.902Z,95306.31
2023-04-01T00:34:14.835Z,95314.75
2023-04-01T00:36:47.700Z,95311.28
2023-04-01T00:39:21.904Z,95325.09
2023-04-01T00:41:54.631Z,95315.50
2023-04-01T00:44:28.570Z,95322.75
2023-04-01T00:47:01.636Z,95321.63
2023-04-01T00:49:35.842Z,95328.53
2023-04-01T00:52:10.409Z,95325.88
2023-04-01T00:54:47.369Z,95325.88
2023-04-01T00:57:22.067Z,95325.50
2023-04-01T00:59:56.329Z,95325.16
2023-04-01T01:02:29.238Z,95325.59
2023-04-01T01:05:02.001Z,95316.06
2023-04-01T01:07:40.134Z,95315.38
2023-04-01T01:10:18.738Z,95302.78
2023-04-01T01:12:55.940Z,95309.69
2023-04-01T01:15:31.536Z,95309.31
2023-04-01T01:18:08.252Z,95307.81
2023-04-01T01:21:08.446Z,95302.47
2023-04-01T01:23:54.045Z,95305.94
2023-04-01T01:26:39.457Z,95299.81
2023-04-01T01:29:18.029Z,95315.50
2023-04-01T01:31:56.886Z,95290.31
2023-04-01T01:34:33.337Z,95301.34
2023-04-01T01:37:11.299Z,95312.47
2023-04-01T01:39:45.373Z,95307.91
2023-04-01T01:42:19.956Z,95310.56
2023-04-01T01:44:53.480Z,95306.00
2023-04-01T01:47:27.400Z,95299.88
2023-04-01T01:50:01.050Z,95306.34
2023-04-01T01:52:35.161Z,95293.69
2023-04-01T01:55:22.612Z,95293.69
2023-04-01T01:57:56.820Z,95272.63
2023-04-01T02:00:30.061Z,95281.03
2023-04-01T02:03:02.989Z,95280.25
2023-04-01T02:05:36.686Z,95275.31
2023-04-01T02:08:13.272Z,95279.91
2023-04-01T02:10:49.755Z,95280.25
2023-04-01T02:13:27.609Z,95274.47
2023-04-01T02:16:02.738Z,95280.19
2023-04-01T02:18:38.813Z,95284.75
2023-04-01T02:21:12.028Z,95274.78
2023-04-01T02:23:47.744Z,95266.69
2023-04-01T02:26:20.965Z,95286.19
2023-04-01T02:28:54.979Z,95271.59
2023-04-01T02:31:27.912Z,95272.34
2023-04-01T02:34:00.959Z,95280.34
2023-04-01T02:36:34.064Z,95276.13
2023-04-01T02:39:09.048Z,95252.31
2023-04-01T02:41:41.999Z,95269.41
2023-04-01T02:44:15.827Z,95278.50
2023-04-01T02:46:48.547Z,95276.13
2023-04-01T02:49:21.681Z,95279.13
2023-04-01T02:51:54.435Z,95270.25
2023-04-01T02:54:28.576Z,95282.09
2023-04-01T02:57:01.583Z,95271.41
2023-04-01T02:59:34.803Z,95269.13
2023-04-01T03:02:07.895Z,95268.00
2023-04-01T03:04:40.654Z,95268.78
2023-04-01T03:07:13.494Z,95266.88
2023-04-01T03:09:47.609Z,95254.66
2023-04-01T03:12:20.261Z,95253.81
2023-04-01T03:14:52.940Z,95262.97
2023-04-01T03:17:25.805Z,95274.78
2023-04-01T03:19:58.666Z,95271.66
2023-04-01T03:22:31.319Z,95273.91
2023-04-01T03:25:05.901Z,95272.31
2023-04-01T03:27:38.676Z,95272.16
2023-04-01T03:30:11.772Z,95267.88
2023-04-01T03:32:44.542Z,95258.59
2023-04-01T03:35:17.416Z,95263.00
2023-04-01T03:37:50.078Z,95256.75
2023-04-01T03:40:24.826Z,95266.91
2023-04-01T03:42:57.742Z,95251.88
2023-04-01T03:45:30.739Z,95254.47
2023-04-01T03:48:03.739Z,95255.09
2023-04-01T03:50:36.578Z,95246.22
2023-04-01T03:53:09.619Z,95245.03
2023-04-01T03:55:43.645Z,95257.19
2023-04-01T03:58:16.744Z,95264.00
2023-04-01T04:00:49.820Z,95270.88
2023-04-01T04:03:22.707Z,95270.09
2023-04-01T04:05:56.767Z,95266.66
2023-04-01T04:08:29.354Z,95264.34
2023-04-01T04:11:03.539Z,95278.44
2023-04-01T04:13:36.969Z,95273.47
2023-04-01T04:16:10.833Z,95279.56
2023-04-01T04:18:43.621Z,95278.88
2023-04-01T04:21:17.011Z,95290.75
2023-04-01T04:23:49.727Z,95282.84
2023-04-01T04:26:23.817Z,95279.47
2023-04-01T04:28:57.082Z,95276.47
2023-04-01T04:31:29.976Z,95274.97
2023-04-01T04:34:02.910Z,95277.31
2023-04-01T04:36:35.931Z,95265.16
2023-04-01T04:39:08.605Z,95273.94
2023-04-01T04:41:43.697Z,95266.72
2023-04-01T04:44:16.437Z,95274.72
2023-04-01T04:46:49.469Z,95285.41
2023-04-01T04:49:22.179Z,95280.47
2023-04-01T04:51:54.876Z,95275.91
2023-04-01T04:54:27.528Z,95286.97
2023-04-01T04:57:01.882Z,95272.84
2023-04-01T04:59:34.515Z,95290.38
2023-04-01T05:02:07.573Z,95291.59
2023-04-01T05:04:40.438Z,95309.94
2023-04-01T05:07:13.502Z,95299.69
2023-04-01T05:09:47.931Z,95302.00
2023-04-01T05:12:22.167Z,95296.72
2023-04-01T05:14:54.865Z,95307.84
2023-04-01T05:17:27.659Z,95305.94
2023-04-01T05:20:00.497Z,95300.25
2023-04-01T05:22:33.214Z,95319.38
2023-04-01T05:25:06.234Z,95303.34
2023-04-01T05:27:40.320Z,95318.69
2023-04-01T05:30:13.568Z,95306.19
2023-04-01T05:32:46.402Z,95311.16
2023-04-01T05:35:19.079Z,95306.69
2023-04-01T05:37:52.268Z,95313.63
2023-04-01T05:40:24.971Z,95316.72
2023-04-01T05:42:59.256Z,95312.59
2023-04-01T05:45:32.115Z,95336.38
2023-04-01T05:48:05.441Z,95321.53
2023-04-01T05:50:38.092Z,95338.44
2023-04-01T05:53:10.856Z,95336.16
2023-04-01T05:55:43.628Z,95349.59
2023-04-01T05:58:17.751Z,95338.56
2023-04-01T06:01:02.281Z,95340.91
2023-04-01T06:03:41.473Z,95322.97
2023-04-01T06:06:16.591Z,95343.63
2023-04-01T06:08:50.889Z,95326.81
2023-04-01T06:11:29.485Z,95323.44
2023-04-01T06:14:17.038Z,95330.78
2023-04-01T06:16:58.977Z,95338.06
2023-04-01T06:19:38.329Z,95315.66
2023-04-01T06:22:28.467Z,95307.69
2023-04-01T06:25:10.424Z,95325.34
2023-04-01T06:27:51.677Z,95313.19
2023-04-01T06:30:32.539Z,95306.03
2023-04-01T06:33:27.211Z,95317.63
2023-04-01T06:36:07.288Z,95326.13
2023-04-01T06:38:57.548Z,95328.97
2023-04-01T06:41:33.399Z,95314.16
2023-04-01T06:44:11.307Z,95315.81
2023-04-01T06:46:47.925Z,95311.38
2023-04-01T06:49:44.497Z,95287.03
2023-04-01T06:52:22.862Z,95299.41
2023-04-01T06:54:58.787Z,95303.41
2023-04-01T06:57:33.792Z,95298.56
2023-04-01T07:00:14.102Z,95288.47
2023-04-01T07:02:54.801Z,95292.06
2023-04-01T07:05:31.757Z,95293.41
2023-04-01T07:08:10.260Z,95281.28
2023-04-01T07:10:46.947Z,95305.97
2023-04-01T07:13:23.236Z,95289.34
2023-04-01T07:16:02.258Z,95300.94
2023-04-01T07:18:39.072Z,95298.75
2023-04-01T07:21:17.991Z,95312.66
2023-04-01T07:23:54.317Z,95311.63
2023-04-01T07:26:27.801Z,95296.72
2023-04-01T07:29:00.672Z,95302.13
2023-04-01T07:31:43.931Z,95317.84
2023-04-01T07:34:20.371Z,95320.16
2023-04-01T07:36:56.878Z,95319.38
2023-04-01T07:39:36.055Z,95303.69
2023-04-01T07:42:11.916Z,95330.09
2023-04-01T07:44:51.579Z,95338.94
2023-04-01T07:47:32.462Z,95335.13
2023-04-01T07:50:11.395Z,95329.75
2023-04-01T07:52:46.738Z,95341.59
2023-04-01T07:55:24.969Z,95341.59
2023-04-01T07:58:02.437Z,95341.19
2023-04-01T08:00:39.764Z,95333.13
2023-04-01T08:03:19.266Z,95347.72
2023-04-01T08:05:55.750Z,95338.16
2023-04-01T08:08:35.589Z,95334.75
2023-04-01T08:11:15.076Z,95340.91
2023-04-01T08:13:53.167Z,95331.78
2023-04-01T08:16:34.336Z,95334.13
2023-04-01T08:19:15.966Z,95336.09
2023-04-01T08:21:51.879Z,95336.88
2023-04-01T08:24:31.775Z,95350.00
2023-04-01T08:27:16.274Z,95346.19
2023-04-01T08:29:52.288Z,95337.34
2023-04-01T08:32:28.368Z,95343.50
2023-04-01T08:35:09.183Z,95337.72
2023-04-01T08:37:43.392Z,95348.81
2023-04-01T08:40:27.691Z,95349.56
2023-04-01T08:43:07.601Z,95346.06
2023-04-01T08:45:58.143Z,95344.88
2023-04-01T08:48:41.321Z,95343.28
2023-04-01T08:51:29.220Z,95349.34
2023-04-01T08:54:10.027Z,95348.13
2023-04-01T08:56:44.969Z,95350.78
2023-04-01T08:59:32.123Z,95345.72
2023-04-01T09:02:16.812Z,95344.13
2023-04-01T09:05:00.795Z,95338.69
2023-04-01T09:07:39.620Z,95350.91
2023-04-01T09:10:30.277Z,95356.97
2023-04-01T09:13:13.232Z,95353.09
2023-04-01T09:16:01.233Z,95371.44
2023-04-01T09:18:51.570Z,95362.22
2023-04-01T09:21:34.204Z,95362.59
2023-04-01T09:24:19.398Z,95365.25
2023-04-01T09:27:04.219Z,95369.50
2023-04-01T09:29:51.833Z,95356.09
2023-04-01T09:32:39.611Z,95354.94
2023-04-01T09:35:23.301Z,95364.16
2023-04-01T09:38:02.619Z,95350.41
2023-04-01T09:40:39.871Z,95349.69
2023-04-01T09:43:23.909Z,95355.13
2023-04-01T09:46:05.058Z,95356.34
2023-04-01T09:48:55.983Z,95359.91
2023-04-01T09:51:35.859Z,95364.97
2023-04-01T09:54:22.246Z,95360.44
2023-04-01T09:57:04.980Z,95356.72
2023-04-01T09:59:59.190Z,95357.19
2023-04-01T10:02:57.570Z,95357.69
2023-04-01T10:05:42.798Z,95350.91
2023-04-01T10:08:31.934Z,95336.41
2023-04-01T10:11:26.397Z,95340.44
2023-04-01T10:14:13.953Z,95342.47
2023-04-01T10:17:02.650Z,95337.59
2023-04-01T10:19:56.414Z,95337.34
2023-04-01T10:22:49.060Z,95335.19
2023-04-01T10:25:35.959Z,95346.47
2023-04-01T10:28:23.728Z,95349.66
2023-04-01T10:31:15.005Z,95351.72
2023-04-01T10:34:05.767Z,95346.78
2023-04-01T10:36:54.289Z,95343.00
2023-04-01T10:39:35.305Z,95349.56
2023-04-01T10:42:31.714Z,95347.28
2023-04-01T10:45:23.082Z,95345.41
2023-04-01T10:48:14.416Z,95343.09
2023-04-01T10:51:04.827Z,95335.41
2023-04-01T10:53:43.885Z,95341.59
2023-04-01T10:56:37.313Z,95341.63
2023-04-01T10:59:30.503Z,95343.94
2023-04-01T11:02:18.198Z,95338.94
2023-04-01T11:05:25.501Z,95335.47
2023-04-01T11:08:20.353Z,95354.72
2023-04-01T11:11:10.423Z,95333.16
2023-04-01T11:14:10.228Z,95342.38
2023-04-01T11:16:57.861Z,95356.25
2023-04-01T11:19:48.623Z,95326.97
2023-04-01T11:22:35.114Z,95343.50
2023-04-01T11:25:26.879Z,95330.00
2023-04-01T11:28:10.361Z,95348.50
2023-04-01T11:31:01.702Z,95339.66
2023-04-01T11:33:38.282Z,95351.56
2023-04-01T11:36:17.359Z,95348.88
2023-04-01T11:39:02.897Z,95354.63
2023-04-01T11:41:39.638Z,95349.59
2023-04-01T11:44:20.213Z,95331.06
2023-04-01T11:47:09.124Z,95349.16
2023-04-01T11:49:49.963Z,95345.31
2023-04-01T11:52:36.157Z,95331.41
2023-04-01T11:55:16.709Z,95341.44
2023-04-01T11:57:57.668Z,95333.34
2023-04-01T12:00:44.172Z,95348.41
2023-04-01T12:03:25.237Z,95338.78
2023-04-01T12:06:04.083Z,95368.88
2023-04-01T12:08:43.126Z,95355.41
2023-04-01T12:11:19.811Z,95351.16
2023-04-01T12:13:57.496Z,95350.41
2023-04-01T12:16:45.749Z,95367.75
2023-04-01T12:19:22.382Z,95369.31
2023-04-01T12:22:04.594Z,95369.31
2023-04-01T12:24:45.277Z,95365.47
2023-04-01T12:27:32.823Z,95362.81
2023-04-01T12:30:16.887Z,95353.94
2023-04-01T12:32:55.524Z,95348.53
2023-04-01T12:35:30.485Z,95347.78
2023-04-01T12:38:12.770Z,95350.84
2023-04-01T12:40:51.348Z,95349.31
2023-04-01T12:43:38.906Z,95353.56
2023-04-01T12:46:18.472Z,95357.03
2023-04-01T12:49:01.144Z,95368.22
2023-04-01T12:51:40.567Z,95370.91
2023-04-01T12:54:25.032Z,95361.28
2023-04-01T12:57:07.106Z,95346.28
2023-04-01T12:59:52.293Z,95359.72
2023-04-01T13:02:31.201Z,95354.69
2023-04-01T13:05:16.745Z,95350.06
2023-04-01T13:07:55.680Z,95334.25
2023-04-01T13:10:45.070Z,95343.91
2023-04-01T13:13:25.841Z,95339.28
2023-04-01T13:16:01.053Z,95340.78
2023-04-01T13:18:38.814Z,95328.88
2023-04-01T13:21:18.501Z,95328.50
2023-04-01T13:23:58.257Z,95331.19
2023-04-01T13:26:35.780Z,95330.09
2023-04-01T13:29:13.226Z,95323.91
2023-04-01T13:32:05.737Z,95318.16
2023-04-01T13:34:48.648Z,95323.16
2023-04-01T13:37:29.211Z,95325.06
2023-04-01T13:40:16.516Z,95319.66
2023-04-01T13:42:51.701Z,95328.09
2023-04-01T13:45:25.748Z,95332.31
2023-04-01T13:48:11.805Z,95333.44
2023-04-01T13:50:55.457Z,95336.50
2023-04-01T13:53:43.184Z,95333.78
2023-04-01T13:56:26.449Z,95331.41
2023-04-01T13:59:14.082Z,95336.78
2023-04-01T14:01:51.484Z,95332.16
2023-04-01T14:04:34.740Z,95323.25
2023-04-01T14:07:16.312Z,95322.47
2023-04-01T14:10:01.831Z,95307.41
2023-04-01T14:12:41.163Z,95310.84
2023-04-01T14:15:28.671Z,95303.50
2023-04-01T14:18:09.454Z,95315.06
2023-04-01T14:20:43.711Z,95309.63
2023-04-01T14:23:32.609Z,95319.28
2023-04-01T14:26:11.153Z,95320.44
2023-04-01T14:28:49.422Z,95321.97
2023-04-01T14:31:32.868Z,95313.53
2023-04-01T14:34:09.220Z,95326.66
2023-04-01T14:36:55.781Z,95322.81
2023-04-01T14:39:43.354Z,95327.47
2023-04-01T14:42:26.298Z,95329.84
2023-04-01T14:45:16.999Z,95338.38
2023-04-01T14:47:52.959Z,95373.13
2023-04-01T14:50:27.770Z,95372.00
2023-04-01T14:53:13.669Z,95395.53
2023-04-01T14:55:51.678Z,95423.69
2023-04-01T14:58:26.871Z,95410.97
2023-04-01T15:01:11.083Z,95391.25
2023-04-01T15:03:52.585Z,95368.44
2023-04-01T15:06:44.301Z,95364.06
2023-04-01T15:09:23.697Z,95370.00
2023-04-01T15:12:05.270Z,95372.50
2023-04-01T15:14:55.891Z,95381.56
2023-04-01T15:17:44.042Z,95387.16
2023-04-01T15:20:27.885Z,95391.22
2023-04-01T15:23:05.264Z,95391.44
2023-04-01T15:25:47.740Z,95396.66
2023-04-01T15:28:25.741Z,95372.38
2023-04-01T15:31:02.669Z,95373.03
2023-04-01T15:33:43.470Z,95355.31
2023-04-01T15:36:23.950Z,95363.28
2023-04-01T15:39:01.286Z,95360.88
2023-04-01T15:41:41.557Z,95368.91
2023-04-01T15:44:39.501Z,95358.47
2023-04-01T15:47:30.676Z,95351.94
2023-04-01T15:50:19.831Z,95358.47
2023-04-01T15:53:02.705Z,95353.84
2023-04-01T15:55:41.211Z,95358.06
2023-04-01T15:58:29.183Z,95357.34
2023-04-01T16:01:10.008Z,95349.72
2023-04-01T16:03:45.577Z,95346.69
2023-04-01T16:06:39.404Z,95347.53
2023-04-01T16:09:21.849Z,95342.59
2023-04-01T16:11:59.145Z,95345.34
2023-04-01T16:14:38.906Z,95342.25
2023-04-01T16:17:17.756Z,95351.47
2023-04-01T16:19:53.765Z,95349.16
2023-04-01T16:22:29.227Z,95346.06
2023-04-01T16:25:17.334Z,95352.91
2023-04-01T16:27:56.469Z,95347.53
2023-04-01T16:30:38.904Z,95360.53
2023-04-01T16:33:15.574Z,95352.81
2023-04-01T16:35:49.888Z,95352.75
2023-04-01T16:38:27.597Z,95355.03
2023-04-01T16:41:07.754Z,95347.31
2023-04-01T16:43:47.447Z,95346.13
2023-04-01T16:46:33.041Z,95356.44
2023-04-01T16:49:24.776Z,95355.66
2023-04-01T16:52:06.846Z,95357.97
2023-04-01T16:54:43.972Z,95358.72
2023-04-01T16:57:21.135Z,95357.56
2023-04-01T17:00:03.017Z,95367.16
2023-04-01T17:02:38.726Z,95374.84
2023-04-01T17:05:14.175Z,95377.91
2023-04-01T17:07:50.312Z,95388.63
2023-04-01T17:10:47.115Z,95392.81
2023-04-01T17:13:27.439Z,95397.78
2023-04-01T17:16:05.107Z,95400.81
2023-04-01T17:18:44.699Z,95393.91
2023-04-01T17:21:20.276Z,95396.16
2023-04-01T17:23:53.544Z,95393.91
2023-04-01T17:26:31.288Z,95393.91
2023-04-01T17:29:09.422Z,95396.16
2023-04-01T17:31:48.340Z,95396.16
2023-04-01T17:34:27.834Z,95403.81
2023-04-01T17:37:08.700Z,95397.63
2023-04-01T17:39:46.788Z,95404.47
2023-04-01T17:42:24.597Z,95405.56
2023-04-01T17:45:02.969Z,95407.84
2023-04-01T17:47:47.030Z,95402.03
2023-04-01T17:50:23.625Z,95414.94
2023-04-01T17:53:05.712Z,95411.44
2023-04-01T17:55:51.318Z,95407.16
2023-04-01T17:58:25.065Z,95411.63
2023-04-01T18:01:16.307Z,95413.81
2023-04-01T18:04:03.644Z,95411.03
2023-04-01T18:06:39.190Z,95405.94
2023-04-01T18:09:20.716Z,95416.56
2023-04-01T18:12:01.453Z,95413.78
2023-04-01T18:14:43.100Z,95414.84
2023-04-01T18:17:22.177Z,95402.88
2023-04-01T18:20:03.085Z,95417.41
2023-04-01T18:22:39.847Z,95419.25
2023-04-01T18:25:17.176Z,95419.97
2023-04-01T18:27:51.944Z,95418.38
2023-04-01T18:30:30.107Z,95421.31
2023-04-01T18:33:05.849Z,95431.97
2023-04-01T18:35:49.675Z,95427.31
2023-04-01T18:38:30.540Z,95427.63
2023-04-01T18:41:14.514Z,95433.69
2023-04-01T18:43:57.382Z,95446.97
2023-04-01T18:46:33.652Z,95448.84
2023-04-01T18:49:15.861Z,95452.94
2023-04-01T18:51:54.807Z,95466.22
2023-04-01T18:54:29.378Z,95461.56
2023-04-01T18:57:07.179Z,95459.53
2023-04-01T18:59:42.901Z,95464.06
2023-04-01T19:02:28.949Z,95467.78
2023-04-01T19:05:04.633Z,95467.28
2023-04-01T19:07:46.892Z,95468.66
2023-04-01T19:10:24.059Z,95465.50
2023-04-01T19:13:13.867Z,95473.81
2023-04-01T19:15:49.679Z,95473.63
2023-04-01T19:18:28.082Z,95473.22
2023-04-01T19:21:03.564Z,95482.59
2023-04-01T19:23:45.203Z,95479.09
2023-04-01T19:26:24.513Z,95479.00
2023-04-01T19:28:59.148Z,95473.94
2023-04-01T19:31:46.372Z,95484.97
2023-04-01T19:34:23.943Z,95486.75
2023-04-01T19:36:58.833Z,95488.25
2023-04-01T19:39:39.634Z,95483.59
2023-04-01T19:42:18.356Z,95485.50
2023-04-01T19:44:56.041Z,95498.50
2023-04-01T19:47:38.783Z,95496.28
2023-04-01T19:50:22.546Z,95503.25
2023-04-01T19:52:57.239Z,95509.44
2023-04-01T19:55:36.615Z,95517.19
2023-04-01T19:58:16.313Z,95516.16
2023-04-01T20:00:52.563Z,95510.13
2023-04-01T20:03:36.965Z,95506.75
2023-04-01T20:06:17.917Z,95511.06
2023-04-01T20:08:57.007Z,95508.41
2023-04-01T20:11:44.598Z,95518.41
2023-04-01T20:14:24.666Z,95510.38
2023-04-01T20:17:12.474Z,95500.03
2023-04-01T20:19:47.918Z,95510.66
2023-04-01T20:22:32.150Z,95506.75
2023-04-01T20:25:11.709Z,95513.56
2023-04-01T20:27:48.728Z,95510.81
2023-04-01T20:30:29.231Z,95514.63
2023-04-01T20:33:09.193Z,95519.09
2023-04-01T20:35:48.240Z,95520.22
2023-04-01T20:38:48.793Z,95522.09
2023-04-01T20:41:26.392Z,95522.09
2023-04-01T20:44:05.908Z,95524.38
2023-04-01T20:46:56.250Z,95535.47
2023-04-01T20:49:36.191Z,95537.81
2023-04-01T20:52:18.580Z,95543.94
2023-04-01T20:55:01.884Z,95532.47
2023-04-01T20:57:39.516Z,95538.16
2023-04-01T21:00:24.689Z,95530.91
2023-04-01T21:03:08.661Z,95540.81
2023-04-01T21:06:01.704Z,95532.41
2023-04-01T21:08:49.203Z,95530.75
2023-04-01T21:11:27.605Z,95529.53
2023-04-01T21:14:09.480Z,95539.38
2023-04-01T21:16:46.265Z,95538.50
2023-04-01T21:19:34.328Z,95537.66
2023-04-01T21:22:17.816Z,95534.09
2023-04-01T21:25:01.131Z,95542.84
2023-04-01T21:27:42.490Z,95549.53
2023-04-01T21:30:26.406Z,95549.47
2023-04-01T21:33:08.077Z,95547.41
2023-04-01T21:35:46.808Z,95547.63
2023-04-01T21:38:30.115Z,95554.00
2023-04-01T21:41:17.596Z,95551.56
2023-04-01T21:44:02.496Z,95552.63
2023-04-01T21:46:49.747Z,95556.66
2023-04-01T21:49:29.467Z,95556.56
2023-04-01T21:52:20.110Z,95556.44
2023-04-01T21:55:04.480Z,95564.38
2023-04-01T21:57:54.382Z,95566.50
2023-04-01T22:00:28.898Z,95570.53
2023-04-01T22:03:33.363Z,95574.25
2023-04-01T22:06:11.359Z,95590.16
2023-04-01T22:08:49.632Z,95593.06
2023-04-01T22:11:33.387Z,95597.50
2023-04-01T22:14:11.555Z,95599.31
2023-04-01T22:16:48.718Z,95595.50
2023-04-01T22:19:23.166Z,95593.63
2023-04-01T22:22:03.599Z,95590.28
2023-04-01T22:24:40.921Z,95591.19
2023-04-01T22:27:19.899Z,95594.72
2023-04-01T22:30:01.524Z,95585.59
2023-04-01T22:32:39.259Z,95592.03
2023-04-01T22:35:16.457Z,95592.81
2023-04-01T22:37:55.589Z,95595.81
2023-04-01T22:40:32.380Z,95598.50
2023-04-01T22:43:09.068Z,95606.94
2023-04-01T22:46:06.124Z,95612.38
2023-04-01T22:48:42.480Z,95617.81
2023-04-01T22:51:17.958Z,95620.25
2023-04-01T22:53:57.167Z,95621.91
2023-04-01T22:56:32.261Z,95630.88
2023-04-01T22:59:10.668Z,95635.63
2023-04-01T23:01:47.157Z,95631.28
2023-04-01T23:04:24.215Z,95637.59
2023-04-01T23:06:58.888Z,95641.56
2023-04-01T23:09:33.716Z,95649.00
2023-04-01T23:12:09.213Z,95631.59
2023-04-01T23:14:47.606Z,95630.56
2023-04-01T23:17:29.025Z,95640.59
2023-04-01T23:20:06.931Z,95635.25
2023-04-01T23:22:45.647Z,95640.59
2023-04-01T23:25:24.958Z,95634.81
2023-04-01T23:28:00.572Z,95636.59
2023-04-01T23:30:50.869Z,95637.31
2023-04-01T23:33:29.264Z,95639.09
2023-04-01T23:36:06.984Z,95639.34
2023-04-01T23:38:42.730Z,95644.59
2023-04-01T23:41:19.970Z,95643.72
2023-04-01T23:43:56.594Z,95645.94
2023-04-01T23:46:31.775Z,95646.28
2023-04-01T23:49:06.030Z,95655.34
2023-04-01T23:51:40.551Z,95652.28
2023-04-01T23:54:15.769Z,95648.84
2023-04-01T23:56:50.627Z,95652.66
2023-04-01T23:59:25.522Z,95653.06
